sensor_id;sensor_type;location;lat;lon;timestamp;P1;durP1;ratioP1;P2;durP2;ratioP2
39930;SDS011;26635;-35.248;149.138;2024-02-28T00:00:45;4.30;;;2.67;;
39930;SDS011;26635;-35.248;149.138;2024-02-28T00:03:17;4.20;;;2.47;;
39930;SDS011;26635;-35.248;149.138;2024-02-28T00:05:47;4.10;;;2.65;;
39930;SDS011;26635;-35.248;149.138;2024-02-28T00:08:21;2.83;;;2.25;;
39930;SDS011;26635;-35.248;149.138;2024-02-28T00:10:54;3.83;;;2.55;;
39930;SDS011;26635;-35.248;149.138;2024-02-28T00:13:25;3.42;;;2.30;;
39930;SDS011;26635;-35.248;149.138;2024-02-28T00:15:56;3.90;;;2.92;;
39930;SDS011;26635;-35.248;149.138;2024-02-28T00:18:27;5.78;;;2.63;;
39930;SDS011;26635;-35.248;149.138;2024-02-28T00:21:00;4.00;;;2.47;;
39930;SDS011;26635;-35.248;149.138;2024-02-28T00:23:30;3.85;;;2.80;;
39930;SDS011;26635;-35.248;149.138;2024-02-28T00:26:02;5.07;;;2.90;;
39930;SDS011;26635;-35.248;149.138;2024-02-28T00:28:33;5.25;;;2.40;;
39930;SDS011;26635;-35.248;149.138;2024-02-28T00:31:03;4.30;;;2.53;;
39930;SDS011;26635;-35.248;149.138;2024-02-28T00:33:34;4.20;;;2.35;;
39930;SDS011;26635;-35.248;149.138;2024-02-28T00:36:04;3.70;;;2.63;;
39930;SDS011;26635;-35.248;149.138;2024-02-28T00:38:35;4.45;;;3.03;;
39930;SDS011;26635;-35.248;149.138;2024-02-28T00:41:07;3.35;;;2.55;;
39930;SDS011;26635;-35.248;149.138;2024-02-28T00:43:37;3.78;;;2.92;;
39930;SDS011;26635;-35.248;149.138;2024-02-28T00:46:07;4.22;;;2.15;;
39930;SDS011;26635;-35.248;149.138;2024-02-28T00:48:40;3.08;;;2.40;;
39930;SDS011;26635;-35.248;149.138;2024-02-28T00:51:11;3.45;;;2.08;;
39930;SDS011;26635;-35.248;149.138;2024-02-28T00:53:44;3.60;;;3.05;;
39930;SDS011;26635;-35.248;149.138;2024-02-28T00:56:15;5.88;;;2.75;;
39930;SDS011;26635;-35.248;149.138;2024-02-28T00:58:46;4.18;;;2.78;;
39930;SDS011;26635;-35.248;149.138;2024-02-28T01:01:16;5.20;;;3.05;;
39930;SDS011;26635;-35.248;149.138;2024-02-28T01:03:47;3.90;;;2.72;;
39930;SDS011;26635;-35.248;149.138;2024-02-28T01:06:18;3.53;;;2.60;;
39930;SDS011;26635;-35.248;149.138;2024-02-28T01:08:48;4.25;;;2.95;;
39930;SDS011;26635;-35.248;149.138;2024-02-28T01:11:19;3.72;;;2.78;;
39930;SDS011;26635;-35.248;149.138;2024-02-28T01:13:49;3.88;;;2.60;;
39930;SDS011;26635;-35.248;149.138;2024-02-28T01:16:19;6.10;;;3.42;;
39930;SDS011;26635;-35.248;149.138;2024-02-28T01:18:50;4.70;;;2.90;;
39930;SDS011;26635;-35.248;149.138;2024-02-28T01:21:21;3.60;;;2.60;;
39930;SDS011;26635;-35.248;149.138;2024-02-28T01:23:52;3.88;;;2.85;;
39930;SDS011;26635;-35.248;149.138;2024-02-28T01:26:23;4.93;;;2.78;;
39930;SDS011;26635;-35.248;149.138;2024-02-28T01:28:54;3.47;;;2.67;;
39930;SDS011;26635;-35.248;149.138;2024-02-28T01:31:24;5.03;;;3.38;;
39930;SDS011;26635;-35.248;149.138;2024-02-28T01:33:54;3.53;;;2.88;;
39930;SDS011;26635;-35.248;149.138;2024-02-28T01:36:25;3.65;;;3.03;;
39930;SDS011;26635;-35.248;149.138;2024-02-28T01:38:56;5.07;;;2.80;;
39930;SDS011;26635;-35.248;149.138;2024-02-28T01:41:26;4.57;;;2.90;;
39930;SDS011;26635;-35.248;149.138;2024-02-28T01:43:57;2.92;;;2.63;;
39930;SDS011;26635;-35.248;149.138;2024-02-28T01:46:27;4.85;;;2.60;;
39930;SDS011;26635;-35.248;149.138;2024-02-28T01:49:00;7.00;;;3.20;;
39930;SDS011;26635;-35.248;149.138;2024-02-28T01:51:31;5.07;;;2.97;;
39930;SDS011;26635;-35.248;149.138;2024-02-28T01:54:02;4.45;;;2.65;;
39930;SDS011;26635;-35.248;149.138;2024-02-28T01:56:33;4.47;;;3.65;;
39930;SDS011;26635;-35.248;149.138;2024-02-28T01:59:04;5.35;;;2.83;;
39930;SDS011;26635;-35.248;149.138;2024-02-28T02:01:35;4.78;;;2.65;;
39930;SDS011;26635;-35.248;149.138;2024-02-28T02:04:06;6.22;;;2.42;;
39930;SDS011;26635;-35.248;149.138;2024-02-28T02:06:37;4.10;;;2.92;;
39930;SDS011;26635;-35.248;149.138;2024-02-28T02:09:11;5.07;;;3.45;;
39930;SDS011;26635;-35.248;149.138;2024-02-28T02:11:42;5.72;;;2.97;;
39930;SDS011;26635;-35.248;149.138;2024-02-28T02:14:13;6.28;;;3.10;;
39930;SDS011;26635;-35.248;149.138;2024-02-28T02:16:43;4.90;;;2.80;;
39930;SDS011;26635;-35.248;149.138;2024-02-28T02:19:14;4.80;;;2.50;;
39930;SDS011;26635;-35.248;149.138;2024-02-28T02:21:48;5.25;;;3.25;;
39930;SDS011;26635;-35.248;149.138;2024-02-28T02:24:22;4.20;;;2.88;;
39930;SDS011;26635;-35.248;149.138;2024-02-28T02:26:59;5.45;;;2.67;;
39930;SDS011;26635;-35.248;149.138;2024-02-28T02:29:35;3.65;;;2.53;;
39930;SDS011;26635;-35.248;149.138;2024-02-28T02:32:07;4.13;;;3.33;;
39930;SDS011;26635;-35.248;149.138;2024-02-28T02:34:38;4.05;;;2.17;;
39930;SDS011;26635;-35.248;149.138;2024-02-28T02:37:09;2.85;;;2.20;;
39930;SDS011;26635;-35.248;149.138;2024-02-28T02:39:40;6.15;;;3.00;;
39930;SDS011;26635;-35.248;149.138;2024-02-28T02:42:11;6.80;;;3.58;;
39930;SDS011;26635;-35.248;149.138;2024-02-28T02:44:43;4.07;;;2.72;;
39930;SDS011;26635;-35.248;149.138;2024-02-28T02:47:13;5.25;;;3.30;;
39930;SDS011;26635;-35.248;149.138;2024-02-28T02:49:46;7.45;;;2.95;;
39930;SDS011;26635;-35.248;149.138;2024-02-28T02:52:17;4.63;;;2.70;;
39930;SDS011;26635;-35.248;149.138;2024-02-28T02:54:47;7.05;;;2.20;;
39930;SDS011;26635;-35.248;149.138;2024-02-28T02:57:18;4.20;;;2.70;;
39930;SDS011;26635;-35.248;149.138;2024-02-28T02:59:49;4.85;;;2.80;;
39930;SDS011;26635;-35.248;149.138;2024-02-28T03:02:20;7.13;;;3.25;;
39930;SDS011;26635;-35.248;149.138;2024-02-28T03:04:50;4.78;;;3.00;;
39930;SDS011;26635;-35.248;149.138;2024-02-28T03:07:20;3.95;;;2.60;;
39930;SDS011;26635;-35.248;149.138;2024-02-28T03:09:51;5.63;;;2.47;;
39930;SDS011;26635;-35.248;149.138;2024-02-28T03:12:22;3.50;;;2.28;;
39930;SDS011;26635;-35.248;149.138;2024-02-28T03:14:52;5.72;;;2.63;;
39930;SDS011;26635;-35.248;149.138;2024-02-28T03:17:23;6.38;;;3.00;;
39930;SDS011;26635;-35.248;149.138;2024-02-28T03:19:53;4.10;;;2.70;;
39930;SDS011;26635;-35.248;149.138;2024-02-28T03:22:23;3.90;;;2.90;;
39930;SDS011;26635;-35.248;149.138;2024-02-28T03:24:54;4.68;;;2.50;;
39930;SDS011;26635;-35.248;149.138;2024-02-28T03:27:24;4.55;;;2.50;;
39930;SDS011;26635;-35.248;149.138;2024-02-28T03:29:56;5.60;;;3.10;;
39930;SDS011;26635;-35.248;149.138;2024-02-28T03:32:32;3.65;;;2.85;;
39930;SDS011;26635;-35.248;149.138;2024-02-28T03:35:03;3.90;;;3.03;;
39930;SDS011;26635;-35.248;149.138;2024-02-28T03:37:37;3.88;;;3.00;;
39930;SDS011;26635;-35.248;149.138;2024-02-28T03:40:07;3.78;;;2.60;;
39930;SDS011;26635;-35.248;149.138;2024-02-28T03:42:38;5.40;;;3.25;;
39930;SDS011;26635;-35.248;149.138;2024-02-28T03:45:09;6.10;;;3.50;;
39930;SDS011;26635;-35.248;149.138;2024-02-28T03:47:39;5.82;;;2.70;;
39930;SDS011;26635;-35.248;149.138;2024-02-28T03:50:10;3.65;;;2.60;;
39930;SDS011;26635;-35.248;149.138;2024-02-28T03:52:40;5.35;;;2.70;;
39930;SDS011;26635;-35.248;149.138;2024-02-28T03:55:11;6.15;;;3.00;;
39930;SDS011;26635;-35.248;149.138;2024-02-28T03:57:42;5.32;;;2.63;;
39930;SDS011;26635;-35.248;149.138;2024-02-28T04:00:16;2.60;;;2.33;;
39930;SDS011;26635;-35.248;149.138;2024-02-28T04:02:49;4.30;;;2.78;;
39930;SDS011;26635;-35.248;149.138;2024-02-28T04:05:21;3.95;;;2.38;;
39930;SDS011;26635;-35.248;149.138;2024-02-28T04:07:51;4.15;;;2.25;;
39930;SDS011;26635;-35.248;149.138;2024-02-28T04:10:22;3.97;;;3.00;;
39930;SDS011;26635;-35.248;149.138;2024-02-28T04:12:52;5.22;;;2.55;;
39930;SDS011;26635;-35.248;149.138;2024-02-28T04:15:23;4.45;;;2.95;;
39930;SDS011;26635;-35.248;149.138;2024-02-28T04:17:54;4.20;;;2.40;;
39930;SDS011;26635;-35.248;149.138;2024-02-28T04:20:25;4.05;;;2.33;;
39930;SDS011;26635;-35.248;149.138;2024-02-28T04:22:55;5.22;;;2.90;;
39930;SDS011;26635;-35.248;149.138;2024-02-28T04:25:25;3.13;;;2.83;;
39930;SDS011;26635;-35.248;149.138;2024-02-28T04:27:56;3.67;;;2.67;;
39930;SDS011;26635;-35.248;149.138;2024-02-28T04:30:27;5.30;;;2.80;;
39930;SDS011;26635;-35.248;149.138;2024-02-28T04:32:58;3.08;;;2.33;;
39930;SDS011;26635;-35.248;149.138;2024-02-28T04:35:28;4.65;;;2.70;;
39930;SDS011;26635;-35.248;149.138;2024-02-28T04:37:59;6.57;;;2.38;;
39930;SDS011;26635;-35.248;149.138;2024-02-28T04:40:30;5.22;;;3.20;;
39930;SDS011;26635;-35.248;149.138;2024-02-28T04:43:00;4.15;;;2.58;;
39930;SDS011;26635;-35.248;149.138;2024-02-28T04:45:31;6.75;;;3.25;;
39930;SDS011;26635;-35.248;149.138;2024-02-28T04:48:01;3.45;;;2.60;;
39930;SDS011;26635;-35.248;149.138;2024-02-28T04:50:32;3.55;;;2.35;;
39930;SDS011;26635;-35.248;149.138;2024-02-28T04:53:03;3.47;;;2.67;;
39930;SDS011;26635;-35.248;149.138;2024-02-28T04:55:34;3.75;;;3.30;;
39930;SDS011;26635;-35.248;149.138;2024-02-28T04:58:04;5.85;;;3.20;;
39930;SDS011;26635;-35.248;149.138;2024-02-28T05:00:35;5.18;;;3.05;;
39930;SDS011;26635;-35.248;149.138;2024-02-28T05:03:05;4.30;;;2.83;;
39930;SDS011;26635;-35.248;149.138;2024-02-28T05:05:35;4.75;;;2.95;;
39930;SDS011;26635;-35.248;149.138;2024-02-28T05:08:06;4.80;;;3.10;;
39930;SDS011;26635;-35.248;149.138;2024-02-28T05:10:37;5.25;;;2.90;;
39930;SDS011;26635;-35.248;149.138;2024-02-28T05:13:08;4.55;;;3.50;;
39930;SDS011;26635;-35.248;149.138;2024-02-28T05:15:39;5.47;;;3.10;;
39930;SDS011;26635;-35.248;149.138;2024-02-28T05:18:09;5.05;;;3.03;;
39930;SDS011;26635;-35.248;149.138;2024-02-28T05:20:40;5.78;;;2.70;;
39930;SDS011;26635;-35.248;149.138;2024-02-28T05:23:10;3.42;;;2.58;;
39930;SDS011;26635;-35.248;149.138;2024-02-28T05:25:41;4.60;;;3.03;;
39930;SDS011;26635;-35.248;149.138;2024-02-28T05:28:11;4.03;;;2.50;;
39930;SDS011;26635;-35.248;149.138;2024-02-28T05:30:41;6.88;;;3.25;;
39930;SDS011;26635;-35.248;149.138;2024-02-28T05:33:16;3.80;;;2.97;;
39930;SDS011;26635;-35.248;149.138;2024-02-28T05:35:50;4.68;;;2.70;;
39930;SDS011;26635;-35.248;149.138;2024-02-28T05:38:23;4.43;;;2.58;;
39930;SDS011;26635;-35.248;149.138;2024-02-28T05:40:56;4.32;;;2.58;;
39930;SDS011;26635;-35.248;149.138;2024-02-28T05:43:28;8.07;;;2.70;;
39930;SDS011;26635;-35.248;149.138;2024-02-28T05:45:59;5.00;;;3.10;;
39930;SDS011;26635;-35.248;149.138;2024-02-28T05:48:29;6.07;;;3.30;;
39930;SDS011;26635;-35.248;149.138;2024-02-28T05:51:02;5.40;;;2.97;;
39930;SDS011;26635;-35.248;149.138;2024-02-28T05:53:33;6.97;;;3.03;;
39930;SDS011;26635;-35.248;149.138;2024-02-28T05:56:08;5.28;;;2.92;;
39930;SDS011;26635;-35.248;149.138;2024-02-28T05:58:48;5.10;;;3.03;;
39930;SDS011;26635;-35.248;149.138;2024-02-28T06:01:18;5.20;;;3.03;;
39930;SDS011;26635;-35.248;149.138;2024-02-28T06:03:49;4.43;;;2.63;;
39930;SDS011;26635;-35.248;149.138;2024-02-28T06:06:19;5.15;;;3.28;;
39930;SDS011;26635;-35.248;149.138;2024-02-28T06:08:50;6.70;;;3.03;;
39930;SDS011;26635;-35.248;149.138;2024-02-28T06:11:20;5.00;;;3.05;;
39930;SDS011;26635;-35.248;149.138;2024-02-28T06:13:51;7.43;;;3.78;;
39930;SDS011;26635;-35.248;149.138;2024-02-28T06:16:21;8.52;;;3.30;;
39930;SDS011;26635;-35.248;149.138;2024-02-28T06:18:51;7.53;;;3.72;;
39930;SDS011;26635;-35.248;149.138;2024-02-28T06:21:22;3.83;;;3.00;;
39930;SDS011;26635;-35.248;149.138;2024-02-28T06:23:53;4.43;;;3.15;;
39930;SDS011;26635;-35.248;149.138;2024-02-28T06:26:24;4.78;;;2.97;;
39930;SDS011;26635;-35.248;149.138;2024-02-28T06:28:57;4.35;;;2.83;;
39930;SDS011;26635;-35.248;149.138;2024-02-28T06:31:30;4.65;;;2.92;;
39930;SDS011;26635;-35.248;149.138;2024-02-28T06:34:01;2.95;;;2.47;;
39930;SDS011;26635;-35.248;149.138;2024-02-28T06:36:33;4.57;;;3.20;;
39930;SDS011;26635;-35.248;149.138;2024-02-28T06:39:03;6.80;;;3.65;;
39930;SDS011;26635;-35.248;149.138;2024-02-28T06:41:34;5.55;;;2.88;;
39930;SDS011;26635;-35.248;149.138;2024-02-28T06:44:06;3.85;;;3.05;;
39930;SDS011;26635;-35.248;149.138;2024-02-28T06:46:37;3.85;;;2.60;;
39930;SDS011;26635;-35.248;149.138;2024-02-28T06:49:08;5.50;;;3.10;;
39930;SDS011;26635;-35.248;149.138;2024-02-28T06:51:40;3.83;;;2.88;;
39930;SDS011;26635;-35.248;149.138;2024-02-28T06:54:12;3.97;;;2.53;;
39930;SDS011;26635;-35.248;149.138;2024-02-28T06:56:43;5.53;;;2.97;;
39930;SDS011;26635;-35.248;149.138;2024-02-28T06:59:13;6.72;;;3.40;;
39930;SDS011;26635;-35.248;149.138;2024-02-28T07:01:44;4.50;;;3.08;;
39930;SDS011;26635;-35.248;149.138;2024-02-28T07:04:14;4.40;;;3.00;;
39930;SDS011;26635;-35.248;149.138;2024-02-28T07:06:45;5.43;;;3.03;;
39930;SDS011;26635;-35.248;149.138;2024-02-28T07:09:16;4.88;;;2.95;;
39930;SDS011;26635;-35.248;149.138;2024-02-28T07:11:46;5.00;;;2.85;;
39930;SDS011;26635;-35.248;149.138;2024-02-28T07:14:17;4.82;;;3.30;;
39930;SDS011;26635;-35.248;149.138;2024-02-28T07:16:47;4.55;;;2.85;;
39930;SDS011;26635;-35.248;149.138;2024-02-28T07:19:18;6.28;;;3.25;;
39930;SDS011;26635;-35.248;149.138;2024-02-28T07:21:48;4.85;;;3.42;;
39930;SDS011;26635;-35.248;149.138;2024-02-28T07:24:19;7.13;;;3.38;;
39930;SDS011;26635;-35.248;149.138;2024-02-28T07:26:49;7.00;;;2.70;;
39930;SDS011;26635;-35.248;149.138;2024-02-28T07:29:22;6.53;;;3.35;;
39930;SDS011;26635;-35.248;149.138;2024-02-28T07:31:54;4.28;;;2.42;;
39930;SDS011;26635;-35.248;149.138;2024-02-28T07:34:24;4.20;;;2.63;;
39930;SDS011;26635;-35.248;149.138;2024-02-28T07:36:55;3.33;;;2.80;;
39930;SDS011;26635;-35.248;149.138;2024-02-28T07:39:25;3.72;;;3.03;;
39930;SDS011;26635;-35.248;149.138;2024-02-28T07:41:56;5.05;;;2.72;;
39930;SDS011;26635;-35.248;149.138;2024-02-28T07:44:27;5.70;;;2.75;;
39930;SDS011;26635;-35.248;149.138;2024-02-28T07:46:59;5.50;;;3.40;;
39930;SDS011;26635;-35.248;149.138;2024-02-28T07:49:29;4.05;;;2.60;;
39930;SDS011;26635;-35.248;149.138;2024-02-28T07:52:02;4.45;;;2.70;;
39930;SDS011;26635;-35.248;149.138;2024-02-28T07:54:34;4.90;;;2.60;;
39930;SDS011;26635;-35.248;149.138;2024-02-28T07:57:05;4.35;;;2.67;;
39930;SDS011;26635;-35.248;149.138;2024-02-28T07:59:41;3.25;;;2.88;;
39930;SDS011;26635;-35.248;149.138;2024-02-28T08:02:12;4.95;;;3.45;;
39930;SDS011;26635;-35.248;149.138;2024-02-28T08:04:43;5.55;;;3.42;;
39930;SDS011;26635;-35.248;149.138;2024-02-28T08:07:15;6.55;;;3.30;;
39930;SDS011;26635;-35.248;149.138;2024-02-28T08:09:45;6.82;;;3.65;;
39930;SDS011;26635;-35.248;149.138;2024-02-28T08:12:16;5.40;;;3.80;;
39930;SDS011;26635;-35.248;149.138;2024-02-28T08:14:47;6.32;;;4.57;;
39930;SDS011;26635;-35.248;149.138;2024-02-28T08:17:18;6.00;;;4.22;;
39930;SDS011;26635;-35.248;149.138;2024-02-28T08:19:49;7.00;;;3.97;;
39930;SDS011;26635;-35.248;149.138;2024-02-28T08:22:20;4.75;;;3.97;;
39930;SDS011;26635;-35.248;149.138;2024-02-28T08:24:53;6.90;;;4.22;;
39930;SDS011;26635;-35.248;149.138;2024-02-28T08:27:25;4.20;;;3.50;;
39930;SDS011;26635;-35.248;149.138;2024-02-28T08:29:57;6.38;;;4.15;;
39930;SDS011;26635;-35.248;149.138;2024-02-28T08:32:27;6.75;;;4.53;;
39930;SDS011;26635;-35.248;149.138;2024-02-28T08:34:57;5.85;;;3.60;;
39930;SDS011;26635;-35.248;149.138;2024-02-28T08:37:28;7.97;;;4.03;;
39930;SDS011;26635;-35.248;149.138;2024-02-28T08:39:58;5.93;;;3.97;;
39930;SDS011;26635;-35.248;149.138;2024-02-28T08:42:29;10.07;;;3.85;;
39930;SDS011;26635;-35.248;149.138;2024-02-28T08:45:00;4.82;;;3.83;;
39930;SDS011;26635;-35.248;149.138;2024-02-28T08:47:32;5.82;;;4.18;;
39930;SDS011;26635;-35.248;149.138;2024-02-28T08:50:03;6.32;;;3.53;;
39930;SDS011;26635;-35.248;149.138;2024-02-28T08:52:36;6.82;;;3.70;;
39930;SDS011;26635;-35.248;149.138;2024-02-28T08:55:06;4.85;;;3.72;;
39930;SDS011;26635;-35.248;149.138;2024-02-28T08:57:37;4.18;;;3.22;;
39930;SDS011;26635;-35.248;149.138;2024-02-28T09:00:08;6.15;;;3.72;;
39930;SDS011;26635;-35.248;149.138;2024-02-28T09:02:39;6.03;;;3.65;;
39930;SDS011;26635;-35.248;149.138;2024-02-28T09:05:10;7.63;;;3.80;;
39930;SDS011;26635;-35.248;149.138;2024-02-28T09:07:41;6.60;;;4.28;;
39930;SDS011;26635;-35.248;149.138;2024-02-28T09:10:12;7.05;;;3.92;;
39930;SDS011;26635;-35.248;149.138;2024-02-28T09:12:43;9.95;;;4.40;;
39930;SDS011;26635;-35.248;149.138;2024-02-28T09:15:14;8.00;;;4.20;;
39930;SDS011;26635;-35.248;149.138;2024-02-28T09:17:45;6.90;;;3.72;;
39930;SDS011;26635;-35.248;149.138;2024-02-28T09:20:16;6.35;;;3.58;;
39930;SDS011;26635;-35.248;149.138;2024-02-28T09:22:46;8.20;;;4.53;;
39930;SDS011;26635;-35.248;149.138;2024-02-28T09:25:17;7.00;;;4.50;;
39930;SDS011;26635;-35.248;149.138;2024-02-28T09:27:53;9.43;;;4.32;;
39930;SDS011;26635;-35.248;149.138;2024-02-28T09:30:24;11.48;;;5.03;;
39930;SDS011;26635;-35.248;149.138;2024-02-28T09:33:08;6.25;;;3.95;;
39930;SDS011;26635;-35.248;149.138;2024-02-28T09:35:40;6.22;;;4.35;;
39930;SDS011;26635;-35.248;149.138;2024-02-28T09:38:11;7.65;;;4.45;;
39930;SDS011;26635;-35.248;149.138;2024-02-28T09:40:50;5.53;;;4.05;;
39930;SDS011;26635;-35.248;149.138;2024-02-28T09:46:04;5.85;;;3.92;;
39930;SDS011;26635;-35.248;149.138;2024-02-28T09:48:42;5.25;;;3.90;;
39930;SDS011;26635;-35.248;149.138;2024-02-28T09:51:16;5.63;;;4.20;;
39930;SDS011;26635;-35.248;149.138;2024-02-28T09:53:50;6.13;;;4.60;;
39930;SDS011;26635;-35.248;149.138;2024-02-28T09:56:21;8.45;;;4.78;;
39930;SDS011;26635;-35.248;149.138;2024-02-28T09:58:53;10.00;;;5.32;;
39930;SDS011;26635;-35.248;149.138;2024-02-28T10:01:25;12.05;;;5.90;;
39930;SDS011;26635;-35.248;149.138;2024-02-28T10:03:56;6.45;;;4.57;;
39930;SDS011;26635;-35.248;149.138;2024-02-28T10:06:31;5.57;;;4.72;;
39930;SDS011;26635;-35.248;149.138;2024-02-28T10:09:01;8.38;;;4.35;;
39930;SDS011;26635;-35.248;149.138;2024-02-28T10:11:34;8.55;;;4.75;;
39930;SDS011;26635;-35.248;149.138;2024-02-28T10:14:04;8.88;;;4.80;;
39930;SDS011;26635;-35.248;149.138;2024-02-28T10:16:34;6.82;;;4.43;;
39930;SDS011;26635;-35.248;149.138;2024-02-28T10:19:05;8.60;;;4.50;;
39930;SDS011;26635;-35.248;149.138;2024-02-28T10:21:35;11.13;;;5.03;;
39930;SDS011;26635;-35.248;149.138;2024-02-28T10:24:05;7.30;;;4.43;;
39930;SDS011;26635;-35.248;149.138;2024-02-28T10:26:43;7.25;;;4.80;;
39930;SDS011;26635;-35.248;149.138;2024-02-28T10:29:24;9.27;;;5.10;;
39930;SDS011;26635;-35.248;149.138;2024-02-28T10:31:56;10.75;;;5.20;;
39930;SDS011;26635;-35.248;149.138;2024-02-28T10:34:28;9.23;;;5.65;;
39930;SDS011;26635;-35.248;149.138;2024-02-28T10:37:01;7.40;;;5.65;;
39930;SDS011;26635;-35.248;149.138;2024-02-28T10:39:32;7.80;;;4.95;;
39930;SDS011;26635;-35.248;149.138;2024-02-28T10:42:05;9.63;;;6.13;;
39930;SDS011;26635;-35.248;149.138;2024-02-28T10:44:36;9.77;;;5.88;;
39930;SDS011;26635;-35.248;149.138;2024-02-28T10:47:07;8.45;;;5.45;;
39930;SDS011;26635;-35.248;149.138;2024-02-28T10:49:41;9.52;;;6.63;;
39930;SDS011;26635;-35.248;149.138;2024-02-28T10:52:13;10.07;;;6.05;;
39930;SDS011;26635;-35.248;149.138;2024-02-28T10:54:51;8.82;;;6.35;;
39930;SDS011;26635;-35.248;149.138;2024-02-28T10:57:25;7.15;;;6.00;;
39930;SDS011;26635;-35.248;149.138;2024-02-28T10:59:56;9.68;;;7.13;;
39930;SDS011;26635;-35.248;149.138;2024-02-28T11:02:28;11.38;;;8.13;;
39930;SDS011;26635;-35.248;149.138;2024-02-28T11:04:58;10.38;;;7.57;;
39930;SDS011;26635;-35.248;149.138;2024-02-28T11:07:30;9.45;;;6.97;;
39930;SDS011;26635;-35.248;149.138;2024-02-28T11:10:05;8.52;;;7.05;;
39930;SDS011;26635;-35.248;149.138;2024-02-28T11:12:42;9.45;;;7.13;;
39930;SDS011;26635;-35.248;149.138;2024-02-28T11:15:24;12.13;;;8.20;;
39930;SDS011;26635;-35.248;149.138;2024-02-28T11:18:08;11.55;;;7.85;;
39930;SDS011;26635;-35.248;149.138;2024-02-28T11:20:39;13.80;;;8.80;;
39930;SDS011;26635;-35.248;149.138;2024-02-28T11:23:11;9.68;;;7.28;;
39930;SDS011;26635;-35.248;149.138;2024-02-28T11:25:42;10.00;;;8.13;;
39930;SDS011;26635;-35.248;149.138;2024-02-28T11:28:13;11.00;;;8.10;;
39930;SDS011;26635;-35.248;149.138;2024-02-28T11:30:45;14.75;;;9.20;;
39930;SDS011;26635;-35.248;149.138;2024-02-28T11:33:16;13.90;;;10.15;;
39930;SDS011;26635;-35.248;149.138;2024-02-28T11:35:57;11.48;;;9.48;;
39930;SDS011;26635;-35.248;149.138;2024-02-28T11:38:27;14.35;;;9.55;;
39930;SDS011;26635;-35.248;149.138;2024-02-28T11:41:08;11.38;;;8.88;;
39930;SDS011;26635;-35.248;149.138;2024-02-28T11:43:38;14.18;;;9.88;;
39930;SDS011;26635;-35.248;149.138;2024-02-28T11:46:18;15.15;;;10.90;;
39930;SDS011;26635;-35.248;149.138;2024-02-28T11:48:48;17.02;;;11.32;;
39930;SDS011;26635;-35.248;149.138;2024-02-28T11:51:18;15.82;;;10.82;;
39930;SDS011;26635;-35.248;149.138;2024-02-28T11:53:49;13.52;;;9.75;;
39930;SDS011;26635;-35.248;149.138;2024-02-28T11:56:20;14.93;;;10.45;;
39930;SDS011;26635;-35.248;149.138;2024-02-28T11:58:51;14.90;;;10.77;;
39930;SDS011;26635;-35.248;149.138;2024-02-28T12:01:35;14.80;;;10.65;;
39930;SDS011;26635;-35.248;149.138;2024-02-28T12:04:06;17.70;;;10.98;;
39930;SDS011;26635;-35.248;149.138;2024-02-28T12:06:39;12.35;;;10.75;;
39930;SDS011;26635;-35.248;149.138;2024-02-28T12:09:11;13.90;;;11.02;;
39930;SDS011;26635;-35.248;149.138;2024-02-28T12:11:54;16.23;;;11.73;;
39930;SDS011;26635;-35.248;149.138;2024-02-28T12:14:24;16.00;;;10.65;;
39930;SDS011;26635;-35.248;149.138;2024-02-28T12:16:54;16.88;;;10.95;;
39930;SDS011;26635;-35.248;149.138;2024-02-28T12:19:27;14.27;;;10.57;;
39930;SDS011;26635;-35.248;149.138;2024-02-28T12:21:58;13.90;;;10.60;;
39930;SDS011;26635;-35.248;149.138;2024-02-28T12:24:29;15.43;;;12.80;;
39930;SDS011;26635;-35.248;149.138;2024-02-28T12:26:59;13.35;;;11.13;;
39930;SDS011;26635;-35.248;149.138;2024-02-28T12:29:29;14.90;;;11.15;;
39930;SDS011;26635;-35.248;149.138;2024-02-28T12:32:00;15.05;;;10.60;;
39930;SDS011;26635;-35.248;149.138;2024-02-28T12:34:31;13.63;;;11.52;;
39930;SDS011;26635;-35.248;149.138;2024-02-28T12:37:01;17.33;;;11.95;;
39930;SDS011;26635;-35.248;149.138;2024-02-28T12:39:33;14.90;;;10.55;;
39930;SDS011;26635;-35.248;149.138;2024-02-28T12:42:04;14.05;;;11.98;;
39930;SDS011;26635;-35.248;149.138;2024-02-28T12:44:36;14.10;;;10.10;;
39930;SDS011;26635;-35.248;149.138;2024-02-28T12:47:07;16.45;;;10.82;;
39930;SDS011;26635;-35.248;149.138;2024-02-28T12:49:38;16.80;;;11.27;;
39930;SDS011;26635;-35.248;149.138;2024-02-28T12:52:08;13.00;;;10.43;;
39930;SDS011;26635;-35.248;149.138;2024-02-28T12:54:39;14.30;;;10.43;;
39930;SDS011;26635;-35.248;149.138;2024-02-28T12:57:09;17.52;;;11.50;;
39930;SDS011;26635;-35.248;149.138;2024-02-28T12:59:42;16.10;;;11.23;;
39930;SDS011;26635;-35.248;149.138;2024-02-28T13:02:16;12.82;;;10.90;;
39930;SDS011;26635;-35.248;149.138;2024-02-28T13:04:48;14.95;;;10.98;;
39930;SDS011;26635;-35.248;149.138;2024-02-28T13:07:18;15.13;;;11.38;;
39930;SDS011;26635;-35.248;149.138;2024-02-28T13:09:51;16.58;;;11.95;;
39930;SDS011;26635;-35.248;149.138;2024-02-28T13:12:22;15.30;;;11.18;;
39930;SDS011;26635;-35.248;149.138;2024-02-28T13:14:52;14.80;;;10.70;;
39930;SDS011;26635;-35.248;149.138;2024-02-28T13:17:23;15.52;;;10.93;;
39930;SDS011;26635;-35.248;149.138;2024-02-28T13:19:53;18.90;;;11.10;;
39930;SDS011;26635;-35.248;149.138;2024-02-28T13:22:23;15.05;;;10.43;;
39930;SDS011;26635;-35.248;149.138;2024-02-28T13:24:54;13.00;;;10.15;;
39930;SDS011;26635;-35.248;149.138;2024-02-28T13:27:25;15.88;;;10.20;;
39930;SDS011;26635;-35.248;149.138;2024-02-28T13:29:56;17.02;;;10.82;;
39930;SDS011;26635;-35.248;149.138;2024-02-28T13:32:26;16.17;;;10.50;;
39930;SDS011;26635;-35.248;149.138;2024-02-28T13:34:57;15.82;;;11.23;;
39930;SDS011;26635;-35.248;149.138;2024-02-28T13:37:28;12.32;;;9.93;;
39930;SDS011;26635;-35.248;149.138;2024-02-28T13:40:00;14.73;;;10.65;;
39930;SDS011;26635;-35.248;149.138;2024-02-28T13:42:36;14.07;;;10.73;;
39930;SDS011;26635;-35.248;149.138;2024-02-28T13:45:07;15.90;;;11.65;;
39930;SDS011;26635;-35.248;149.138;2024-02-28T13:47:39;14.73;;;10.65;;
39930;SDS011;26635;-35.248;149.138;2024-02-28T13:50:09;16.40;;;11.48;;
39930;SDS011;26635;-35.248;149.138;2024-02-28T13:52:39;15.52;;;11.13;;
39930;SDS011;26635;-35.248;149.138;2024-02-28T13:55:10;15.48;;;11.07;;
39930;SDS011;26635;-35.248;149.138;2024-02-28T13:57:40;14.40;;;11.02;;
39930;SDS011;26635;-35.248;149.138;2024-02-28T14:00:11;14.27;;;10.07;;
39930;SDS011;26635;-35.248;149.138;2024-02-28T14:02:42;12.93;;;9.75;;
39930;SDS011;26635;-35.248;149.138;2024-02-28T14:05:12;11.05;;;8.40;;
39930;SDS011;26635;-35.248;149.138;2024-02-28T14:07:43;14.20;;;10.00;;
39930;SDS011;26635;-35.248;149.138;2024-02-28T14:10:14;15.50;;;10.75;;
39930;SDS011;26635;-35.248;149.138;2024-02-28T14:12:44;14.73;;;10.15;;
39930;SDS011;26635;-35.248;149.138;2024-02-28T14:15:15;17.15;;;10.85;;
39930;SDS011;26635;-35.248;149.138;2024-02-28T14:17:45;12.35;;;9.63;;
39930;SDS011;26635;-35.248;149.138;2024-02-28T14:20:16;12.77;;;10.48;;
39930;SDS011;26635;-35.248;149.138;2024-02-28T14:22:46;15.50;;;9.48;;
39930;SDS011;26635;-35.248;149.138;2024-02-28T14:25:17;14.93;;;10.45;;
39930;SDS011;26635;-35.248;149.138;2024-02-28T14:27:52;13.13;;;10.00;;
39930;SDS011;26635;-35.248;149.138;2024-02-28T14:30:22;13.55;;;10.95;;